createdAt,value
2022-10-19T00:00:54.535Z,60.05
2022-10-19T00:07:27.774Z,60.13
2022-10-19T00:13:52.089Z,60.39
2022-10-19T00:20:27.071Z,60.54
2022-10-19T00:26:51.403Z,60.59
2022-10-19T00:33:19.458Z,60.74
2022-10-19T00:39:52.529Z,60.78
2022-10-19T00:46:26.810Z,60.80
2022-10-19T00:53:00.461Z,60.87
2022-10-19T00:59:26.716Z,60.93
2022-10-19T01:12:38.038Z,60.93
2022-10-19T01:25:51.883Z,61.05
2022-10-19T01:32:29.286Z,61.12
2022-10-19T01:38:53.473Z,61.19
2022-10-19T01:52:18.844Z,61.26
2022-10-19T01:58:48.986Z,61.24
2022-10-19T02:05:13.261Z,61.28
2022-10-19T02:11:41.311Z,61.32
2022-10-19T02:18:10.068Z,61.33
2022-10-19T02:24:37.417Z,61.40
2022-10-19T02:31:02.848Z,61.43
2022-10-19T02:37:28.256Z,61.46
2022-10-19T02:43:52.705Z,61.49
2022-10-19T02:50:17.048Z,61.51
2022-10-19T02:56:49.431Z,61.48
2022-10-19T03:03:13.725Z,61.53
2022-10-19T03:09:38.009Z,61.54
2022-10-19T03:16:02.650Z,61.61
2022-10-19T03:22:26.875Z,61.69
2022-10-19T03:28:51.219Z,61.68
2022-10-19T03:35:15.446Z,61.69
2022-10-19T03:41:44.139Z,61.64
2022-10-19T03:47:49.504Z,61.60
2022-10-19T03:54:15.850Z,61.50
2022-10-19T04:00:40.181Z,61.55
2022-10-19T04:07:10.398Z,61.53
2022-10-19T04:13:34.582Z,61.53
2022-10-19T04:19:58.776Z,61.53
2022-10-19T04:26:23.009Z,61.63
2022-10-19T04:32:51.102Z,61.38
2022-10-19T04:39:15.418Z,60.99
2022-10-19T04:45:39.629Z,60.63
2022-10-19T04:52:04.001Z,60.24
2022-10-19T04:58:28.270Z,59.81
2022-10-19T05:04:54.167Z,59.33
2022-10-19T05:11:18.411Z,58.86
2022-10-19T05:17:42.701Z,58.41
2022-10-19T05:24:06.930Z,57.99
2022-10-19T05:30:32.374Z,57.64
2022-10-19T05:36:56.591Z,57.35
2022-10-19T05:43:20.861Z,57.08
2022-10-19T05:49:45.188Z,56.93
2022-10-19T05:56:10.687Z,56.82
2022-10-19T06:02:42.752Z,56.80
2022-10-19T06:09:06.963Z,56.75
2022-10-19T06:15:31.269Z,56.70
2022-10-19T06:22:08.360Z,56.64
2022-10-19T06:28:38.658Z,56.71
2022-10-19T06:35:04.077Z,56.86
2022-10-19T06:41:28.378Z,56.94
2022-10-19T06:47:52.705Z,57.11
2022-10-19T06:54:18.266Z,57.07
2022-10-19T07:00:42.840Z,57.13
2022-10-19T07:07:07.137Z,57.25
2022-10-19T07:13:32.087Z,57.50
2022-10-19T07:19:58.311Z,57.75
2022-10-19T07:26:22.528Z,57.94
2022-10-19T07:32:47.180Z,58.12
2022-10-19T07:39:11.801Z,58.21
2022-10-19T07:45:36.081Z,58.23
2022-10-19T07:52:04.184Z,58.25
2022-10-19T07:58:30.434Z,58.18
2022-10-19T08:05:02.110Z,57.73
2022-10-19T08:25:17.952Z,57.81
2022-10-19T08:31:44.310Z,57.67
2022-10-19T08:38:08.524Z,57.67
2022-10-19T08:44:45.730Z,57.62
2022-10-19T08:51:25.603Z,57.67
2022-10-19T08:57:54.331Z,57.76
2022-10-19T09:04:47.855Z,57.87
2022-10-19T09:11:16.528Z,57.94
2022-10-19T09:17:40.791Z,57.96
2022-10-19T09:24:20.282Z,57.98
2022-10-19T09:30:48.211Z,58.01
2022-10-19T09:44:02.294Z,58.05
2022-10-19T09:50:51.595Z,58.14
2022-10-19T09:57:18.558Z,58.12
2022-10-19T10:03:48.044Z,58.09
2022-10-19T10:10:19.331Z,57.99
2022-10-19T10:16:53.348Z,57.85
2022-10-19T10:23:41.402Z,57.78
2022-10-19T10:30:08.363Z,57.79
2022-10-19T10:36:32.681Z,57.78
2022-10-19T10:43:05.606Z,57.75
2022-10-19T10:49:32.369Z,57.76
2022-10-19T10:56:11.249Z,57.79
2022-10-19T11:02:34.825Z,57.88
2022-10-19T11:09:33.154Z,57.93
2022-10-19T11:16:00.208Z,57.98
2022-10-19T11:22:26.357Z,58.04
2022-10-19T11:29:08.631Z,58.24
2022-10-19T11:35:39.972Z,59.06
2022-10-19T11:42:10.939Z,59.46
2022-10-19T11:48:35.295Z,59.69
2022-10-19T11:55:05.737Z,59.71
2022-10-19T12:01:29.998Z,59.50
2022-10-19T12:07:57.093Z,59.36
2022-10-19T12:14:29.971Z,59.28
2022-10-19T12:20:56.865Z,59.04
2022-10-19T12:27:21.473Z,58.85
2022-10-19T12:33:47.137Z,58.71
2022-10-19T12:40:27.313Z,58.70
2022-10-19T12:47:01.070Z,58.72
2022-10-19T12:53:44.000Z,58.74
2022-10-19T13:00:10.961Z,58.73
2022-10-19T13:06:42.033Z,58.64
2022-10-19T13:13:21.193Z,58.60
2022-10-19T13:20:00.682Z,58.46
2022-10-19T13:26:24.977Z,58.10
2022-10-19T13:32:48.279Z,57.59
2022-10-19T13:39:18.814Z,57.07
2022-10-19T13:45:44.769Z,56.59
2022-10-19T13:52:19.643Z,56.11
2022-10-19T13:59:00.033Z,55.54
2022-10-19T14:05:25.595Z,54.87
2022-10-19T14:11:52.830Z,54.45
2022-10-19T14:18:19.492Z,54.17
2022-10-19T14:24:44.146Z,53.94
2022-10-19T14:31:22.361Z,53.74
2022-10-19T14:37:47.163Z,53.76
2022-10-19T14:44:23.576Z,53.72
2022-10-19T14:50:46.894Z,53.71
2022-10-19T14:57:13.620Z,53.70
2022-10-19T15:03:42.859Z,53.62
2022-10-19T15:10:13.723Z,53.55
2022-10-19T15:16:38.024Z,53.62
2022-10-19T15:23:14.321Z,53.60
2022-10-19T15:29:47.664Z,53.72
2022-10-19T15:36:18.342Z,53.84
2022-10-19T15:43:02.198Z,53.86
2022-10-19T15:49:26.475Z,53.92
2022-10-19T15:55:53.671Z,54.13
2022-10-19T16:02:18.064Z,54.29
2022-10-19T16:08:42.308Z,54.40
2022-10-19T16:15:06.657Z,54.22
2022-10-19T16:21:30.921Z,54.29
2022-10-19T16:27:47.610Z,54.45
2022-10-19T16:34:11.939Z,54.74
2022-10-19T16:40:28.877Z,54.98
2022-10-19T16:46:53.195Z,55.06
2022-10-19T16:53:17.398Z,55.16
2022-10-19T16:59:41.781Z,55.28
2022-10-19T17:06:06.188Z,55.38
2022-10-19T17:12:33.611Z,55.48
2022-10-19T17:18:58.104Z,55.52
2022-10-19T17:25:22.378Z,55.62
2022-10-19T17:31:46.639Z,55.73
2022-10-19T17:38:09.796Z,55.79
2022-10-19T17:44:34.173Z,55.85
2022-10-19T17:50:58.460Z,55.94
2022-10-19T17:57:22.839Z,56.00
2022-10-19T18:03:47.052Z,56.11
2022-10-19T18:10:11.256Z,56.32
2022-10-19T18:16:41.669Z,56.48
2022-10-19T18:23:06.270Z,56.58
2022-10-19T18:29:33.277Z,56.63
2022-10-19T18:35:57.613Z,56.67
2022-10-19T18:42:21.830Z,56.67
2022-10-19T18:48:29.124Z,56.66
2022-10-19T18:54:53.488Z,56.68
2022-10-19T19:01:17.831Z,56.69
2022-10-19T19:07:42.177Z,56.69
2022-10-19T19:14:06.416Z,56.72
2022-10-19T19:20:30.712Z,56.74
2022-10-19T19:26:54.966Z,56.66
2022-10-19T19:33:19.242Z,56.59
2022-10-19T19:39:43.527Z,56.45
2022-10-19T19:46:09.270Z,56.43
2022-10-19T19:52:38.077Z,56.36
2022-10-19T19:59:04.594Z,56.31
2022-10-19T20:05:28.866Z,56.30
2022-10-19T20:11:53.163Z,56.27
2022-10-19T20:18:17.346Z,56.07
2022-10-19T20:24:41.621Z,55.78
2022-10-19T20:31:06.142Z,55.46
2022-10-19T20:37:30.427Z,55.19
2022-10-19T20:43:54.870Z,55.00
2022-10-19T20:50:21.784Z,54.84
2022-10-19T20:56:46.289Z,54.73
2022-10-19T21:03:18.940Z,54.65
2022-10-19T21:09:43.255Z,54.50
2022-10-19T21:16:00.426Z,54.40
2022-10-19T21:22:33.320Z,54.24
2022-10-19T21:29:00.172Z,54.27
2022-10-19T21:35:24.682Z,54.22
2022-10-19T21:41:48.987Z,54.11
2022-10-19T21:48:13.190Z,54.11
2022-10-19T21:54:37.666Z,54.10
2022-10-19T22:01:02.016Z,54.10
2022-10-19T22:07:26.229Z,54.12
2022-10-19T22:13:50.778Z,54.11
2022-10-19T22:20:15.075Z,54.10
2022-10-19T22:26:39.285Z,54.09
2022-10-19T22:33:03.560Z,54.14
2022-10-19T22:39:28.037Z,54.16
2022-10-19T22:45:45.159Z,54.19
2022-10-19T22:52:09.396Z,54.22
2022-10-19T22:58:33.652Z,54.25
2022-10-19T23:04:57.837Z,54.31
2022-10-19T23:11:22.099Z,54.34
2022-10-19T23:17:46.478Z,54.39
2022-10-19T23:24:10.833Z,54.41
2022-10-19T23:30:35.161Z,54.44
2022-10-19T23:37:02.224Z,54.51
2022-10-19T23:43:26.519Z,54.49
2022-10-19T23:49:50.806Z,54.52
2022-10-19T23:56:15.264Z,54.57
